Time;durP1;ratioP1;P1;durP2;ratioP2;P2;SDS_P1;SDS_P2;PMS_P1;PMS_P2;Temp;Humidity;BMP_temperature;BMP_pressure;BME280_temperature;BME280_humidity;BME280_pressure;Samples;Min_cycle;Max_cycle;Signal;HPM_P1;HPM_P2
2022/05/14 00:00:50;;;;;;;1.30;1.17;;;13.10;59.10;;;;;;5022110;28;20037;-73
2022/05/14 00:03:16;;;;;;;2.05;1.20;;;13.00;59.30;;;;;;5005412;28;20037;-72
2022/05/14 00:05:42;;;;;;;2.85;1.40;;;13.00;59.30;;;;;;5030986;28;20041;-73
2022/05/14 00:08:08;;;;;;;1.40;1.15;;;13.00;59.40;;;;;;5021879;28;20044;-72
2022/05/14 00:13:03;;;;;;;2.75;1.00;;;12.90;59.50;;;;;;5025608;28;20033;-73
2022/05/14 00:13:19;;;;;;;3.17;1.17;;;12.90;59.60;;;;;;5006706;28;20671;-73
2022/05/14 00:15:44;;;;;;;2.80;1.25;;;12.80;59.70;;;;;;5021255;28;20124;-72
2022/05/14 00:18:10;;;;;;;4.43;1.65;;;12.80;59.70;;;;;;5019122;28;20086;-73
2022/05/14 00:20:36;;;;;;;2.15;1.20;;;12.80;59.80;;;;;;5003188;28;20115;-72
2022/05/14 00:23:03;;;;;;;2.53;1.17;;;12.70;59.90;;;;;;4986910;28;20669;-72
2022/05/14 00:25:28;;;;;;;2.38;1.00;;;12.70;59.90;;;;;;4998747;28;20041;-72
2022/05/14 00:27:54;;;;;;;3.63;1.30;;;12.60;60.00;;;;;;5017486;28;20044;-72
2022/05/14 00:30:23;;;;;;;2.42;1.40;;;12.60;60.20;;;;;;5004448;28;20504;-72
2022/05/14 00:32:48;;;;;;;1.13;1.02;;;12.50;60.10;;;;;;5010898;28;20050;-73
2022/05/14 00:35:14;;;;;;;3.20;1.10;;;12.50;60.30;;;;;;5009353;28;20035;-73
2022/05/14 00:37:40;;;;;;;2.63;1.67;;;12.50;60.50;;;;;;5021644;28;20052;-72
2022/05/14 00:40:16;;;;;;;2.22;1.20;;;12.50;60.70;;;;;;5009030;28;20179;-72
2022/05/14 00:42:42;;;;;;;2.28;1.10;;;12.40;60.80;;;;;;5004734;28;20029;-73
2022/05/14 00:45:08;;;;;;;5.13;1.20;;;12.40;60.80;;;;;;5040141;28;20040;-72
2022/05/14 00:47:35;;;;;;;6.38;1.52;;;12.30;60.90;;;;;;5033315;28;20449;-73
2022/05/14 00:50:17;;;;;;;1.90;1.48;;;12.30;61.10;;;;;;5037674;28;20029;-73
2022/05/14 00:52:44;;;;;;;2.13;1.20;;;12.30;61.20;;;;;;5044071;28;20506;-72
2022/05/14 00:55:09;;;;;;;3.15;1.48;;;12.20;61.20;;;;;;5035563;28;20048;-72
2022/05/14 00:57:36;;;;;;;5.43;1.75;;;12.20;61.30;;;;;;5056037;28;20036;-73
2022/05/14 01:00:16;;;;;;;2.15;1.40;;;12.10;61.30;;;;;;5019787;28;20040;-72
2022/05/14 01:02:41;;;;;;;2.67;1.52;;;12.10;61.80;;;;;;5033581;28;20186;-72
2022/05/14 01:05:09;;;;;;;2.45;1.30;;;12.10;61.50;;;;;;5045449;28;20766;-73
2022/05/14 01:07:36;;;;;;;2.42;1.50;;;12.00;61.60;;;;;;5028886;28;20033;-72
2022/05/14 01:10:03;;;;;;;3.55;1.52;;;12.00;61.70;;;;;;5031791;28;20052;-72
2022/05/14 01:12:29;;;;;;;3.10;1.52;;;12.00;61.80;;;;;;5021956;28;20044;-72
2022/05/14 01:15:05;;;;;;;2.78;1.73;;;11.90;62.00;;;;;;5025212;28;20116;-72
2022/05/14 01:17:30;;;;;;;2.83;1.38;;;11.90;62.10;;;;;;5035814;28;20076;-72
2022/05/14 01:19:56;;;;;;;4.47;1.35;;;11.80;62.00;;;;;;5042947;28;20075;-72
2022/05/14 01:22:21;;;;;;;3.33;1.58;;;11.80;62.20;;;;;;5038103;28;20542;-73
2022/05/14 01:27:41;;;;;;;3.97;1.65;;;11.80;62.60;;;;;;5041971;28;20056;-72
2022/05/14 01:30:07;;;;;;;2.17;1.50;;;11.70;62.40;;;;;;5027982;28;20495;-72
2022/05/14 01:32:33;;;;;;;2.78;1.55;;;11.70;63.40;;;;;;5030150;28;20045;-73
2022/05/14 01:34:59;;;;;;;2.30;1.45;;;11.70;62.80;;;;;;5042259;28;20056;-72
2022/05/14 01:37:24;;;;;;;4.05;1.60;;;11.60;62.80;;;;;;5041986;28;20146;-72
2022/05/14 01:39:51;;;;;;;1.42;1.15;;;11.60;62.80;;;;;;5049471;28;20039;-73
2022/05/14 01:42:16;;;;;;;5.55;1.52;;;11.60;62.90;;;;;;5057450;28;20131;-72
2022/05/14 01:44:43;;;;;;;2.78;1.63;;;11.50;63.10;;;;;;5040936;28;20593;-72
2022/05/14 01:47:09;;;;;;;1.75;1.50;;;11.50;63.20;;;;;;5032741;28;20459;-73
2022/05/14 01:49:35;;;;;;;3.22;1.42;;;11.50;63.20;;;;;;5016573;28;20112;-72
2022/05/14 01:52:00;;;;;;;3.95;1.52;;;11.50;63.30;;;;;;5017078;28;20119;-71
2022/05/14 01:54:26;;;;;;;3.38;1.60;;;11.40;63.40;;;;;;5032368;28;20119;-72
2022/05/14 01:56:51;;;;;;;1.50;1.40;;;11.40;63.40;;;;;;5045541;28;20087;-72
2022/05/14 01:59:17;;;;;;;2.58;1.38;;;11.40;63.50;;;;;;5043738;28;20059;-73
2022/05/14 02:01:42;;;;;;;3.47;1.50;;;11.30;63.50;;;;;;5039374;28;20044;-72
2022/05/14 02:04:10;;;;;;;2.42;1.35;;;11.30;63.70;;;;;;5015286;28;20078;-73
2022/05/14 02:06:36;;;;;;;2.92;1.50;;;11.30;63.70;;;;;;5030601;28;20710;-72
2022/05/14 02:09:03;;;;;;;1.60;1.50;;;11.20;63.80;;;;;;5014384;28;20040;-72
2022/05/14 02:11:28;;;;;;;2.67;1.27;;;11.20;63.90;;;;;;5014793;28;20041;-73
2022/05/14 02:13:54;;;;;;;2.47;1.70;;;11.20;64.00;;;;;;5028701;28;20043;-72
2022/05/14 02:16:20;;;;;;;1.80;1.50;;;11.10;64.00;;;;;;5042695;28;20104;-71
2022/05/14 02:18:45;;;;;;;2.85;1.73;;;11.10;64.00;;;;;;4991159;28;20454;-72
2022/05/14 02:21:11;;;;;;;3.30;1.48;;;11.10;64.20;;;;;;5037668;28;20082;-73
2022/05/14 02:23:38;;;;;;;2.78;1.70;;;11.00;64.20;;;;;;5041705;28;20070;-73
2022/05/14 02:26:08;;;;;;;3.75;1.40;;;11.00;65.20;;;;;;5015732;28;20033;-72
2022/05/14 02:28:33;;;;;;;2.72;1.63;;;11.00;64.60;;;;;;5037603;28;20102;-73
2022/05/14 02:30:59;;;;;;;2.72;1.33;;;11.00;64.50;;;;;;5038132;28;20545;-72
2022/05/14 02:33:24;;;;;;;3.55;1.45;;;10.90;64.60;;;;;;5016595;28;20134;-72
2022/05/14 02:35:50;;;;;;;2.88;1.60;;;10.90;64.70;;;;;;5044027;28;20029;-71
2022/05/14 02:38:15;;;;;;;3.53;1.60;;;10.90;64.70;;;;;;5027669;28;20024;-72
2022/05/14 02:40:42;;;;;;;2.08;1.27;;;10.90;64.70;;;;;;4999047;28;20115;-71
2022/05/14 02:43:08;;;;;;;3.13;1.77;;;10.80;64.80;;;;;;5005113;28;20041;-72
2022/05/14 02:45:33;;;;;;;2.83;1.60;;;10.80;64.80;;;;;;5021120;28;20056;-73
2022/05/14 02:47:59;;;;;;;2.60;1.58;;;10.80;65.00;;;;;;5026552;28;20047;-72
2022/05/14 02:50:24;;;;;;;3.55;2.08;;;10.70;65.00;;;;;;5039365;28;20029;-72
2022/05/14 02:52:51;;;;;;;2.17;1.38;;;10.70;65.10;;;;;;5023782;28;20040;-72
2022/05/14 02:55:16;;;;;;;2.88;1.77;;;10.70;65.10;;;;;;5003607;28;20037;-71
2022/05/14 02:57:42;;;;;;;2.10;1.60;;;10.70;65.20;;;;;;5026044;28;20056;-72
2022/05/14 03:00:10;;;;;;;3.47;1.52;;;10.60;65.20;;;;;;5040702;28;20873;-72
2022/05/14 03:02:36;;;;;;;3.30;1.63;;;10.60;65.30;;;;;;5015854;28;20040;-72
2022/05/14 03:05:01;;;;;;;2.28;1.50;;;10.60;65.30;;;;;;5030916;28;20799;-73
2022/05/14 03:07:27;;;;;;;2.97;1.42;;;10.60;65.40;;;;;;5039826;28;20033;-72
2022/05/14 03:09:52;;;;;;;3.97;1.77;;;10.50;65.40;;;;;;5026201;28;20042;-73
2022/05/14 03:12:21;;;;;;;3.22;1.58;;;10.50;65.50;;;;;;5041980;28;20037;-72
2022/05/14 03:14:48;;;;;;;4.20;1.60;;;10.50;65.70;;;;;;5021943;28;20403;-73
2022/05/14 03:17:14;;;;;;;2.30;1.42;;;10.40;65.80;;;;;;5018831;28;20033;-72
2022/05/14 03:19:40;;;;;;;2.45;1.55;;;10.40;65.80;;;;;;5018640;28;20044;-72
2022/05/14 03:22:05;;;;;;;2.53;1.55;;;10.40;65.90;;;;;;5008546;28;20495;-72
2022/05/14 03:24:31;;;;;;;3.05;1.52;;;10.30;66.00;;;;;;5024781;28;20029;-72
2022/05/14 03:26:56;;;;;;;3.10;1.42;;;10.30;66.00;;;;;;5033696;28;20028;-72
2022/05/14 03:29:22;;;;;;;3.53;1.60;;;10.30;66.20;;;;;;5039600;28;20146;-71
2022/05/14 03:31:47;;;;;;;4.85;1.60;;;10.30;66.20;;;;;;5020749;28;20086;-71
2022/05/14 03:34:13;;;;;;;2.20;1.58;;;10.30;66.20;;;;;;5025165;28;20140;-72
2022/05/14 03:36:39;;;;;;;1.65;1.30;;;10.20;66.20;;;;;;5001249;28;20812;-72
2022/05/14 03:39:05;;;;;;;3.20;1.50;;;10.20;66.30;;;;;;5025587;28;20029;-71
2022/05/14 03:41:31;;;;;;;1.58;1.40;;;10.20;66.40;;;;;;5018356;28;20336;-72
2022/05/14 03:43:56;;;;;;;1.70;1.60;;;10.20;66.50;;;;;;5035266;28;20044;-72
2022/05/14 03:46:22;;;;;;;1.85;1.60;;;10.20;66.60;;;;;;5039643;28;20509;-72
2022/05/14 03:48:47;;;;;;;4.10;1.50;;;10.10;66.60;;;;;;5037327;28;20037;-71
2022/05/14 03:51:13;;;;;;;3.83;1.75;;;10.10;66.70;;;;;;5014554;28;20036;-71
2022/05/14 03:53:38;;;;;;;1.70;1.38;;;10.10;66.80;;;;;;5041021;28;20118;-72
2022/05/14 03:56:05;;;;;;;2.75;1.60;;;10.10;66.80;;;;;;5018705;28;20041;-71
2022/05/14 03:58:31;;;;;;;2.97;1.73;;;10.10;66.90;;;;;;5035665;28;20040;-72
2022/05/14 04:00:57;;;;;;;1.95;1.55;;;10.10;67.00;;;;;;5022010;28;20925;-72
2022/05/14 04:03:22;;;;;;;3.88;2.65;;;10.00;66.90;;;;;;5012836;28;20507;-71
2022/05/14 04:05:48;;;;;;;5.47;2.83;;;10.00;67.00;;;;;;5024511;28;20064;-72
2022/05/14 04:08:13;;;;;;;3.95;2.50;;;10.00;67.00;;;;;;5016352;28;20033;-71
2022/05/14 04:10:39;;;;;;;3.45;1.95;;;10.00;67.00;;;;;;5009458;28;20059;-73
2022/05/14 04:13:05;;;;;;;3.53;1.92;;;10.00;67.10;;;;;;4987414;28;20400;-71
2022/05/14 04:15:30;;;;;;;3.88;1.50;;;10.00;67.20;;;;;;5020259;28;20755;-72
2022/05/14 04:17:56;;;;;;;3.80;1.38;;;10.00;67.20;;;;;;5043427;28;20032;-72
2022/05/14 04:20:22;;;;;;;3.78;1.60;;;9.90;67.20;;;;;;5038205;28;20047;-71
2022/05/14 04:22:48;;;;;;;2.13;1.52;;;9.90;67.20;;;;;;5030971;28;20051;-72
2022/05/14 04:25:13;;;;;;;2.95;1.58;;;9.90;67.30;;;;;;5030241;28;20443;-73
2022/05/14 04:27:41;;;;;;;2.78;1.40;;;9.90;67.40;;;;;;5041877;28;20049;-72
2022/05/14 04:30:08;;;;;;;5.03;1.30;;;9.90;67.60;;;;;;5026905;28;20036;-72
2022/05/14 04:32:34;;;;;;;4.75;1.70;;;9.90;67.70;;;;;;5014236;28;20072;-71
2022/05/14 04:34:59;;;;;;;1.80;1.35;;;9.90;67.80;;;;;;5047438;28;20067;-72
2022/05/14 04:37:25;;;;;;;2.92;1.83;;;9.80;67.70;;;;;;5033312;28;20116;-72
2022/05/14 04:39:50;;;;;;;3.00;2.13;;;9.80;67.80;;;;;;5045280;28;20118;-71
2022/05/14 04:42:16;;;;;;;2.03;1.40;;;9.80;67.90;;;;;;5058787;28;20051;-71
2022/05/14 04:44:41;;;;;;;2.92;1.60;;;9.80;68.00;;;;;;5027938;28;20056;-73
2022/05/14 04:47:07;;;;;;;2.53;1.50;;;9.80;68.00;;;;;;5009257;28;20036;-73
2022/05/14 04:49:38;;;;;;;3.55;1.63;;;9.90;68.20;;;;;;5010970;28;21366;-73
2022/05/14 04:52:04;;;;;;;2.00;1.30;;;9.80;68.30;;;;;;5029872;28;20415;-73
2022/05/14 04:54:29;;;;;;;3.40;1.33;;;9.90;68.30;;;;;;5045334;28;20122;-72
2022/05/14 04:56:55;;;;;;;1.92;1.55;;;9.90;68.20;;;;;;4992380;28;20394;-74
2022/05/14 04:59:20;;;;;;;2.55;1.50;;;9.90;68.40;;;;;;5026961;28;20033;-73
2022/05/14 05:04:33;;;;;;;3.17;1.70;;;9.90;68.30;;;;;;5042763;28;20097;-69
2022/05/14 05:06:59;;;;;;;3.17;1.50;;;9.90;68.50;;;;;;5027467;28;20051;-69
2022/05/14 05:09:24;;;;;;;1.80;1.50;;;10.00;68.50;;;;;;5017863;28;20037;-70
2022/05/14 05:11:50;;;;;;;4.45;1.73;;;10.00;68.50;;;;;;5046778;28;20041;-69
2022/05/14 05:14:16;;;;;;;3.92;1.90;;;10.00;68.60;;;;;;5042556;28;20033;-70
2022/05/14 05:16:42;;;;;;;3.40;2.10;;;10.00;68.60;;;;;;5001197;28;20730;-69
2022/05/14 05:19:07;;;;;;;3.90;1.80;;;10.10;68.80;;;;;;4996621;28;20037;-70
2022/05/14 05:21:33;;;;;;;2.30;2.10;;;10.10;68.90;;;;;;5005768;28;20029;-72
2022/05/14 05:23:59;;;;;;;5.72;2.28;;;10.10;68.90;;;;;;5022195;28;20028;-72
2022/05/14 05:26:24;;;;;;;3.35;2.00;;;10.20;68.90;;;;;;5000460;28;20053;-72
2022/05/14 05:28:50;;;;;;;2.67;1.90;;;10.20;69.00;;;;;;5024348;28;20530;-72
2022/05/14 05:31:17;;;;;;;3.08;2.20;;;10.30;69.10;;;;;;5006846;28;20029;-72
2022/05/14 05:33:43;;;;;;;5.40;2.53;;;10.30;69.20;;;;;;5025531;28;20123;-73
2022/05/14 05:36:08;;;;;;;8.57;2.45;;;10.40;69.40;;;;;;5026676;28;20124;-74
2022/05/14 05:38:34;;;;;;;3.97;2.50;;;10.40;69.50;;;;;;5022836;28;20051;-73
2022/05/14 05:40:59;;;;;;;4.82;2.10;;;10.40;69.60;;;;;;5015327;28;20425;-73
2022/05/14 05:43:26;;;;;;;3.33;2.50;;;10.50;69.80;;;;;;5027667;28;20447;-72
2022/05/14 05:45:52;;;;;;;3.83;2.30;;;10.60;70.00;;;;;;5024162;28;20743;-72
2022/05/14 05:48:18;;;;;;;3.58;2.00;;;10.60;70.00;;;;;;5032456;28;20482;-72
2022/05/14 05:50:48;;;;;;;5.47;2.10;;;10.70;70.30;;;;;;5027807;28;20040;-73
2022/05/14 05:53:14;;;;;;;5.68;2.20;;;10.70;70.30;;;;;;5022719;28;20738;-72
2022/05/14 05:58:23;;;;;;;2.55;2.05;;;10.90;70.50;;;;;;5041806;28;20038;-73
2022/05/14 06:00:49;;;;;;;5.20;2.35;;;11.00;70.50;;;;;;5057485;28;20033;-73
2022/05/14 06:03:14;;;;;;;5.18;1.90;;;11.10;70.50;;;;;;5043236;28;20594;-73
2022/05/14 06:05:41;;;;;;;4.18;2.67;;;11.20;70.60;;;;;;5023983;28;20544;-73
2022/05/14 06:08:11;;;;;;;3.33;2.05;;;11.30;70.60;;;;;;5015770;28;20040;-73
2022/05/14 06:10:36;;;;;;;5.90;3.40;;;11.40;70.80;;;;;;5025374;28;20037;-73
2022/05/14 06:13:02;;;;;;;5.43;2.67;;;11.50;70.70;;;;;;5040589;28;20358;-73
2022/05/14 06:15:28;;;;;;;4.22;2.55;;;11.60;70.70;;;;;;5038810;28;20525;-74
2022/05/14 06:17:53;;;;;;;5.65;2.35;;;11.70;70.60;;;;;;5040097;28;20498;-72
2022/05/14 06:20:19;;;;;;;5.38;2.63;;;11.80;70.70;;;;;;5037492;28;20078;-71
2022/05/14 06:22:45;;;;;;;3.60;2.75;;;11.90;70.60;;;;;;5027267;28;20407;-69
2022/05/14 06:25:11;;;;;;;4.13;2.50;;;12.00;70.70;;;;;;5031872;28;20158;-69
2022/05/14 06:27:36;;;;;;;5.30;2.45;;;12.20;70.70;;;;;;5033154;28;20107;-72
2022/05/14 06:30:03;;;;;;;4.78;2.40;;;12.30;70.70;;;;;;5045680;28;20043;-72
2022/05/14 06:32:28;;;;;;;4.05;2.53;;;12.40;70.50;;;;;;5015507;28;20040;-72
2022/05/14 06:34:54;;;;;;;2.78;2.47;;;12.60;70.50;;;;;;5046247;28;20033;-71
2022/05/14 06:37:19;;;;;;;5.20;2.33;;;12.70;70.50;;;;;;5028948;28;20119;-72
2022/05/14 06:39:45;;;;;;;5.78;2.40;;;12.90;70.40;;;;;;5029763;28;20094;-72
2022/05/14 06:42:11;;;;;;;4.20;2.17;;;13.00;70.20;;;;;;5056306;28;20067;-72
2022/05/14 06:44:37;;;;;;;4.90;2.30;;;13.10;70.10;;;;;;5043817;28;20046;-72
2022/05/14 06:47:02;;;;;;;4.43;2.28;;;13.30;70.00;;;;;;5037203;28;20120;-73
2022/05/14 06:49:28;;;;;;;3.65;2.30;;;13.50;69.90;;;;;;5022422;28;20045;-72
2022/05/14 06:51:54;;;;;;;3.35;2.08;;;13.60;69.60;;;;;;5026149;28;20036;-75
2022/05/14 06:54:20;;;;;;;4.93;2.08;;;13.80;69.50;;;;;;5036587;28;20109;-72
2022/05/14 06:56:46;;;;;;;3.92;2.20;;;13.90;69.30;;;;;;5033648;28;20107;-72
2022/05/14 06:59:11;;;;;;;3.47;1.90;;;14.10;69.20;;;;;;5057981;28;20033;-73
2022/05/14 07:01:40;;;;;;;4.55;2.17;;;14.30;69.00;;;;;;5040682;28;20055;-73
2022/05/14 07:06:52;;;;;;;2.65;2.10;;;14.70;68.50;;;;;;5041789;28;20059;-73
2022/05/14 07:09:22;;;;;;;4.35;1.80;;;14.80;68.30;;;;;;5041316;28;20024;-72
2022/05/14 07:11:49;;;;;;;2.33;1.70;;;15.00;68.40;;;;;;4995759;28;20124;-72
2022/05/14 07:14:16;;;;;;;4.18;1.70;;;15.20;68.00;;;;;;5015152;28;20033;-74
2022/05/14 07:16:42;;;;;;;3.47;1.80;;;15.40;67.70;;;;;;5031543;28;20036;-73
2022/05/14 07:19:08;;;;;;;6.00;2.28;;;15.60;67.60;;;;;;5030032;28;20029;-73
2022/05/14 07:21:37;;;;;;;2.53;1.88;;;15.80;67.30;;;;;;5030894;28;20040;-73
2022/05/14 07:24:05;;;;;;;4.63;1.88;;;16.00;67.10;;;;;;5007439;28;20063;-73
2022/05/14 07:26:31;;;;;;;4.95;2.35;;;16.20;66.80;;;;;;5002659;28;20029;-73
2022/05/14 07:28:57;;;;;;;6.70;2.35;;;16.40;66.60;;;;;;5027001;28;20652;-72
2022/05/14 07:31:22;;;;;;;6.88;2.03;;;16.50;66.20;;;;;;5027793;28;20573;-72
2022/05/14 07:33:49;;;;;;;5.50;1.65;;;16.70;66.00;;;;;;5051094;28;20534;-73
2022/05/14 07:36:16;;;;;;;4.18;2.08;;;16.90;65.60;;;;;;5026416;28;20029;-75
2022/05/14 07:38:42;;;;;;;6.53;2.10;;;17.10;65.40;;;;;;5025069;28;20056;-72
2022/05/14 07:41:08;;;;;;;3.00;1.85;;;17.30;65.10;;;;;;5039440;28;20044;-72
2022/05/14 07:43:34;;;;;;;3.78;1.95;;;17.50;64.80;;;;;;5057513;28;20041;-73
2022/05/14 07:46:07;;;;;;;5.53;1.80;;;17.70;64.50;;;;;;5046794;28;20036;-74
2022/05/14 07:48:35;;;;;;;3.47;1.67;;;17.90;64.20;;;;;;5027028;28;20033;-74
2022/05/14 07:51:02;;;;;;;2.60;1.40;;;18.10;63.90;;;;;;5020536;28;20069;-72
2022/05/14 07:53:30;;;;;;;4.95;1.95;;;18.30;63.40;;;;;;5042398;28;20150;-71
2022/05/14 07:55:59;;;;;;;13.25;2.50;;;18.50;63.00;;;;;;4994463;28;20028;-73
2022/05/14 07:58:25;;;;;;;6.32;1.85;;;18.70;62.50;;;;;;5016644;28;20098;-74
2022/05/14 08:00:50;;;;;;;13.40;2.78;;;18.90;62.10;;;;;;5016408;28;20518;-74
2022/05/14 08:03:16;;;;;;;5.22;2.17;;;19.20;61.60;;;;;;5046676;28;20067;-74
2022/05/14 08:05:42;;;;;;;5.20;1.77;;;19.40;61.00;;;;;;5040153;28;20043;-74
2022/05/14 08:08:08;;;;;;;8.15;2.17;;;19.60;60.30;;;;;;5040975;28;20060;-74
2022/05/14 08:10:34;;;;;;;7.47;2.00;;;19.80;59.70;;;;;;5023008;28;20033;-73
2022/05/14 08:12:59;;;;;;;5.22;2.03;;;20.00;59.30;;;;;;5037337;28;20037;-74
2022/05/14 08:15:25;;;;;;;4.20;2.05;;;20.20;58.90;;;;;;5004188;28;20033;-74
2022/05/14 08:17:51;;;;;;;5.93;2.00;;;20.40;58.40;;;;;;5022698;28;20441;-74
2022/05/14 08:20:17;;;;;;;9.48;1.88;;;20.60;58.10;;;;;;5031388;28;20032;-74
2022/05/14 08:25:27;;;;;;;4.50;1.75;;;21.10;57.20;;;;;;5060854;28;20120;-74
2022/05/14 08:27:53;;;;;;;3.17;1.58;;;21.30;56.50;;;;;;5013672;28;20060;-73
2022/05/14 08:30:24;;;;;;;6.82;1.67;;;21.50;55.90;;;;;;5012251;28;20044;-74
2022/05/14 08:32:49;;;;;;;3.63;1.42;;;21.70;55.30;;;;;;5023891;28;20580;-72
2022/05/14 08:35:15;;;;;;;7.18;2.00;;;21.90;54.90;;;;;;5044063;28;20974;-72
2022/05/14 08:37:41;;;;;;;4.07;1.60;;;22.10;54.50;;;;;;5044901;28;20106;-73
2022/05/14 08:40:13;;;;;;;3.58;1.98;;;22.30;54.00;;;;;;5034387;28;20032;-74
2022/05/14 08:42:39;;;;;;;8.68;2.28;;;22.50;53.40;;;;;;5061136;28;20549;-74
2022/05/14 08:45:06;;;;;;;5.07;1.70;;;22.70;53.10;;;;;;5021731;28;20029;-74
2022/05/14 08:47:35;;;;;;;6.13;1.70;;;22.90;52.50;;;;;;5013628;28;20036;-74
2022/05/14 08:50:01;;;;;;;7.05;1.92;;;23.10;52.20;;;;;;5014618;28;20037;-73
2022/05/14 08:52:29;;;;;;;7.55;1.55;;;23.30;52.00;;;;;;4980601;28;20051;-74
2022/05/14 08:55:04;;;;;;;7.88;2.00;;;23.50;51.60;;;;;;5028110;28;20033;-73
2022/05/14 08:57:41;;;;;;;3.53;1.27;;;23.70;51.00;;;;;;5030447;28;20058;-74
2022/05/14 09:00:07;;;;;;;8.25;5.65;;;23.80;50.50;;;;;;5036792;28;20042;-74
2022/05/14 09:02:40;;;;;;;16.95;11.60;;;24.00;50.30;;;;;;5017644;28;20041;-74
2022/05/14 09:05:24;;;;;;;12.88;7.95;;;24.20;50.60;;;;;;5012215;28;20132;-75
2022/05/14 09:07:52;;;;;;;7.20;3.30;;;24.40;49.30;;;;;;5008390;28;20507;-74
2022/05/14 09:10:30;;;;;;;7.80;3.00;;;24.50;49.30;;;;;;5008443;28;20437;-76
2022/05/14 09:13:01;;;;;;;4.97;2.55;;;24.80;48.60;;;;;;4984446;28;21443;-75
2022/05/14 09:15:31;;;;;;;7.25;2.92;;;25.00;48.60;;;;;;5007537;28;20083;-75
2022/05/14 09:18:08;;;;;;;8.77;3.73;;;25.10;48.40;;;;;;5027964;28;20045;-75
2022/05/14 09:20:42;;;;;;;5.00;3.40;;;25.30;47.90;;;;;;5012223;28;20029;-75
2022/05/14 09:23:07;;;;;;;5.60;2.28;;;25.60;47.70;;;;;;5014963;28;20037;-75
2022/05/14 09:25:36;;;;;;;4.45;1.60;;;25.80;47.70;;;;;;5012209;28;20125;-75
2022/05/14 09:28:05;;;;;;;5.57;1.60;;;25.90;47.10;;;;;;5017242;28;20033;-72
2022/05/14 09:30:40;;;;;;;7.20;2.25;;;26.20;47.00;;;;;;5002092;28;21648;-72
2022/05/14 09:33:07;;;;;;;7.88;2.28;;;26.30;46.40;;;;;;5022169;28;20052;-73
2022/05/14 09:35:34;;;;;;;8.05;1.65;;;26.50;46.90;;;;;;5012395;28;20049;-73
2022/05/14 09:38:17;;;;;;;5.70;1.50;;;26.60;46.00;;;;;;5002498;28;20097;-75
2022/05/14 09:40:42;;;;;;;8.07;1.25;;;26.80;45.30;;;;;;5034289;28;20182;-74
2022/05/14 09:43:16;;;;;;;3.55;1.08;;;27.00;45.50;;;;;;5021656;28;20131;-74
2022/05/14 09:45:44;;;;;;;3.22;1.15;;;27.20;44.80;;;;;;5057971;28;20032;-74
2022/05/14 09:48:17;;;;;;;6.78;1.25;;;27.50;44.80;;;;;;5035649;28;20033;-74
2022/05/14 09:51:08;;;;;;;4.72;1.25;;;27.70;43.80;;;;;;5047626;28;20042;-74
2022/05/14 09:53:39;;;;;;;4.30;1.40;;;27.90;43.90;;;;;;5035537;28;20036;-75
2022/05/14 09:56:20;;;;;;;1.73;1.00;;;28.10;43.70;;;;;;5035242;28;20067;-74
2022/05/14 09:59:01;;;;;;;4.27;1.20;;;28.20;42.80;;;;;;5038812;28;20029;-74
2022/05/14 10:02:14;;;;;;;3.55;0.98;;;28.40;42.60;;;;;;5031989;28;20286;-74
2022/05/14 10:05:06;;;;;;;11.32;1.58;;;28.60;41.90;;;;;;4947787;28;20098;-74
2022/05/14 10:07:53;;;;;;;3.95;1.13;;;28.80;41.60;;;;;;4950979;28;20043;-73
2022/05/14 10:10:30;;;;;;;4.72;1.27;;;29.00;41.10;;;;;;4928626;28;20361;-73
2022/05/14 10:13:18;;;;;;;4.30;1.10;;;29.20;41.70;;;;;;4921043;28;20067;-73
2022/05/14 10:16:10;;;;;;;4.65;1.10;;;29.30;41.20;;;;;;4946013;28;20648;-74
2022/05/14 10:18:57;;;;;;;3.97;1.10;;;29.40;39.90;;;;;;4944121;28;20057;-74
2022/05/14 10:21:30;;;;;;;5.95;1.60;;;29.60;39.70;;;;;;4949204;28;20034;-74
2022/05/14 10:27:19;;;;;;;5.63;1.17;;;29.60;38.50;;;;;;4952037;28;20109;-76
2022/05/14 10:29:54;;;;;;;6.10;1.30;;;29.70;39.80;;;;;;4961879;28;20532;-73
2022/05/14 10:32:20;;;;;;;2.30;0.98;;;29.80;39.20;;;;;;4949478;28;20037;-74
2022/05/14 10:34:55;;;;;;;4.95;1.33;;;30.00;39.50;;;;;;4962819;28;20098;-74
2022/05/14 10:37:27;;;;;;;1.83;1.15;;;30.10;39.00;;;;;;4951713;28;20027;-74
2022/05/14 10:40:16;;;;;;;9.00;2.45;;;30.20;38.80;;;;;;5055040;28;20047;-74
2022/05/14 10:42:53;;;;;;;5.20;1.23;;;30.30;38.80;;;;;;5024719;28;20041;-75
2022/05/14 10:45:23;;;;;;;2.15;1.30;;;30.50;38.30;;;;;;5065199;28;20040;-73
2022/05/14 10:47:54;;;;;;;4.07;1.52;;;30.60;38.00;;;;;;5056616;28;20047;-74
2022/05/14 10:50:20;;;;;;;2.90;0.90;;;30.70;37.60;;;;;;5043000;28;20038;-74
2022/05/14 10:52:50;;;;;;;8.60;1.45;;;30.70;37.70;;;;;;5053384;28;20066;-74
2022/05/14 10:55:31;;;;;;;11.93;1.10;;;30.80;37.20;;;;;;5038117;28;20032;-75
2022/05/14 10:58:49;;;;;;;4.78;1.10;;;30.90;37.20;;;;;;5029555;28;20120;-75
2022/05/14 11:01:36;;;;;;;3.67;0.93;;;31.00;36.60;;;;;;4996247;28;20041;-74
2022/05/14 11:04:25;;;;;;;5.85;1.13;;;31.20;36.30;;;;;;5061841;28;20543;-73
2022/05/14 11:07:14;;;;;;;2.28;1.30;;;31.30;36.00;;;;;;5025102;28;20677;-73
2022/05/14 11:09:43;;;;;;;4.60;1.52;;;31.40;36.60;;;;;;5005583;28;20037;-75
2022/05/14 11:12:31;;;;;;;1.80;0.88;;;31.50;36.50;;;;;;5057493;28;20045;-75
2022/05/14 11:15:13;;;;;;;;;;;;;;;;;;;;;
2022/05/14 11:17:42;;;;;;;2.67;1.80;;;31.60;36.00;;;;;;5001195;28;20590;-73
2022/05/14 11:20:22;;;;;;;5.68;1.48;;;31.80;35.80;;;;;;4970896;28;20025;-74
2022/05/14 11:22:50;;;;;;;9.20;1.23;;;31.90;35.50;;;;;;4996662;28;20562;-74
2022/05/14 11:25:19;;;;;;;5.28;1.20;;;32.00;35.40;;;;;;5063458;28;20036;-75
2022/05/14 11:28:09;;;;;;;3.33;1.33;;;32.10;34.90;;;;;;5040874;28;20044;-75
2022/05/14 11:31:13;;;;;;;2.30;1.20;;;32.20;34.00;;;;;;5021425;28;20050;-73
2022/05/14 11:33:45;;;;;;;4.78;0.98;;;32.30;33.90;;;;;;5082990;22;20048;-74
2022/05/14 11:36:11;;;;;;;1.65;0.82;;;32.40;33.90;;;;;;5004457;28;20049;-74
2022/05/14 11:38:40;;;;;;;1.33;0.80;;;32.50;34.20;;;;;;5067346;28;20065;-74
2022/05/14 11:41:28;;;;;;;4.07;1.10;;;32.60;34.00;;;;;;5030998;28;20040;-75
2022/05/14 11:43:54;;;;;;;4.57;1.20;;;32.70;33.90;;;;;;5038707;28;20378;-75
2022/05/14 11:46:31;;;;;;;4.97;1.00;;;32.70;33.90;;;;;;5054048;28;20044;-74
2022/05/14 11:49:04;;;;;;;2.95;0.90;;;32.80;33.20;;;;;;5033633;28;20041;-75
2022/05/14 11:51:56;;;;;;;2.95;0.90;;;32.90;32.80;;;;;;5064979;28;20530;-74
2022/05/14 11:54:25;;;;;;;8.77;1.25;;;32.90;32.00;;;;;;5085935;28;20063;-74
2022/05/14 11:57:17;;;;;;;2.60;0.97;;;32.90;32.70;;;;;;5072656;28;20538;-74
2022/05/14 11:59:54;;;;;;;3.05;0.80;;;32.90;32.00;;;;;;5023625;28;20067;-75
2022/05/14 12:02:35;;;;;;;3.20;0.80;;;33.00;32.80;;;;;;5067876;28;20433;-73
2022/05/14 12:05:00;;;;;;;;;;;33.10;32.50;;;;;;5074850;28;20028;-74
2022/05/14 12:07:52;;;;;;;1.67;0.73;;;33.30;32.80;;;;;;5054526;28;19920;-74
2022/05/14 12:10:22;;;;;;;3.50;0.93;;;33.30;32.20;;;;;;5060051;28;20025;-74
2022/05/14 12:13:09;;;;;;;;;;;33.40;32.50;;;;;;5048616;28;20036;-74
2022/05/14 12:15:35;;;;;;;4.25;1.25;;;33.40;32.60;;;;;;5066767;28;19918;-74
2022/05/14 12:18:01;;;;;;;3.65;0.82;;;33.50;32.70;;;;;;5046370;28;20032;-74
2022/05/14 12:20:31;;;;;;;2.95;1.10;;;33.50;32.30;;;;;;5060011;28;20576;-74
2022/05/14 12:23:02;;;;;;;6.40;1.20;;;33.60;32.00;;;;;;5052313;28;20032;-75
2022/05/14 12:25:43;;;;;;;2.67;0.80;;;33.70;31.70;;;;;;5058420;28;20058;-75
2022/05/14 12:28:27;;;;;;;5.60;1.35;;;33.60;30.90;;;;;;5043729;28;20087;-75
2022/05/14 12:34:03;;;;;;;3.17;0.98;;;33.70;31.00;;;;;;5057349;28;20105;-74
2022/05/14 12:36:34;;;;;;;2.17;0.77;;;33.90;31.10;;;;;;5055455;28;20056;-76
2022/05/14 12:39:03;;;;;;;3.38;1.33;;;34.00;31.00;;;;;;5080416;28;20035;-75
2022/05/14 12:41:31;;;;;;;5.28;1.02;;;34.00;30.90;;;;;;5069688;28;20024;-74
2022/05/14 12:44:21;;;;;;;2.25;0.80;;;34.10;30.60;;;;;;5025186;28;20029;-75
2022/05/14 12:46:54;;;;;;;5.45;1.25;;;34.20;30.00;;;;;;5069212;28;20479;-75
2022/05/14 12:49:25;;;;;;;3.08;0.70;;;34.30;30.60;;;;;;5044906;28;20032;-76
2022/05/14 12:51:52;;;;;;;;;;;34.40;30.40;;;;;;5053345;28;20256;-75
2022/05/14 12:54:33;;;;;;;1.48;0.93;;;34.40;30.60;;;;;;5054494;28;19908;-76
2022/05/14 12:57:01;;;;;;;3.10;0.90;;;34.50;29.70;;;;;;5056064;28;20027;-75
2022/05/14 12:59:26;;;;;;;2.88;0.88;;;34.60;30.20;;;;;;5060153;28;20078;-75
2022/05/14 13:01:54;;;;;;;2.55;1.00;;;34.60;30.20;;;;;;5065198;28;20040;-74
2022/05/14 13:04:21;;;;;;;3.95;1.30;;;34.60;30.00;;;;;;5066482;28;20116;-73
2022/05/14 13:06:46;;;;;;;1.35;0.80;;;34.70;30.00;;;;;;5047085;28;20609;-75
2022/05/14 13:09:17;;;;;;;2.78;1.02;;;34.80;30.00;;;;;;5066477;28;20127;-74
2022/05/14 13:11:47;;;;;;;3.63;0.90;;;34.80;29.70;;;;;;5052440;28;20050;-76
2022/05/14 13:14:16;;;;;;;1.60;0.70;;;34.90;29.60;;;;;;5066104;28;20028;-75
2022/05/14 13:16:59;;;;;;;2.92;1.08;;;34.90;29.50;;;;;;5059629;28;20040;-73
2022/05/14 13:19:41;;;;;;;2.72;0.95;;;35.00;29.30;;;;;;5051464;28;20029;-73